createdAt,value
2023-05-25T00:00:46.955Z,9.02
2023-05-25T00:03:03.903Z,8.99
2023-05-25T00:05:09.210Z,8.87
2023-05-25T00:07:12.026Z,8.90
2023-05-25T00:09:16.397Z,8.87
2023-05-25T00:11:19.584Z,8.68
2023-05-25T00:13:22.410Z,7.57
2023-05-25T00:15:26.515Z,8.77
2023-05-25T00:17:30.076Z,8.50
2023-05-25T00:19:33.952Z,8.30
2023-05-25T00:21:38.213Z,8.30
2023-05-25T00:23:41.107Z,8.59
2023-05-25T00:25:44.231Z,8.63
2023-05-25T00:27:47.306Z,8.66
2023-05-25T00:29:50.102Z,8.82
2023-05-25T00:31:54.657Z,8.93
2023-05-25T00:33:57.481Z,8.64
2023-05-25T00:36:00.365Z,8.83
2023-05-25T00:38:03.215Z,8.85
2023-05-25T00:40:11.737Z,8.84
2023-05-25T00:42:14.611Z,8.97
2023-05-25T00:44:21.589Z,8.93
2023-05-25T00:46:24.926Z,8.57
2023-05-25T00:48:29.194Z,8.51
2023-05-25T00:50:40.557Z,9.02
2023-05-25T00:52:43.549Z,8.99
2023-05-25T00:54:52.716Z,8.88
2023-05-25T00:56:58.682Z,8.85
2023-05-25T00:59:09.066Z,8.48
2023-05-25T01:01:14.028Z,8.89
2023-05-25T01:03:21.852Z,8.83
2023-05-25T01:05:30.328Z,8.82
2023-05-25T01:07:35.541Z,8.98
2023-05-25T01:09:40.837Z,9.10
2023-05-25T01:11:46.664Z,9.02
2023-05-25T01:13:51.158Z,8.45
2023-05-25T01:15:54.249Z,9.09
2023-05-25T01:17:59.715Z,9.25
2023-05-25T01:20:11.129Z,9.39
2023-05-25T01:22:23.046Z,9.17
2023-05-25T01:24:32.501Z,9.29
2023-05-25T01:26:43.551Z,8.77
2023-05-25T01:28:51.479Z,9.45
2023-05-25T01:30:57.593Z,9.37
2023-05-25T01:33:01.174Z,9.57
2023-05-25T01:35:05.992Z,9.37
2023-05-25T01:37:13.355Z,9.73
2023-05-25T01:39:18.349Z,9.44
2023-05-25T01:41:21.564Z,9.27
2023-05-25T01:43:24.690Z,8.84
2023-05-25T01:45:28.226Z,9.32
2023-05-25T01:47:37.396Z,9.38
2023-05-25T01:49:47.139Z,8.88
2023-05-25T01:51:57.527Z,9.39
2023-05-25T01:54:08.758Z,9.21
2023-05-25T01:56:15.249Z,9.39
2023-05-25T01:58:19.580Z,9.23
2023-05-25T02:00:24.348Z,9.49
2023-05-25T02:02:29.118Z,9.62
2023-05-25T02:04:32.562Z,9.08
2023-05-25T02:06:37.231Z,9.25
2023-05-25T02:08:43.890Z,8.76
2023-05-25T02:10:46.752Z,8.72
2023-05-25T02:12:50.952Z,7.20
2023-05-25T02:14:54.469Z,8.92
2023-05-25T02:16:57.915Z,8.54
2023-05-25T02:19:00.761Z,9.04
2023-05-25T02:21:03.591Z,8.81
2023-05-25T02:23:06.858Z,7.65
2023-05-25T02:25:10.360Z,8.70
2023-05-25T02:27:13.197Z,8.78
2023-05-25T02:29:17.946Z,8.74
2023-05-25T02:31:21.506Z,8.54
2023-05-25T02:33:24.422Z,8.51
2023-05-25T02:35:27.481Z,8.40
2023-05-25T02:37:30.530Z,8.72
2023-05-25T02:39:33.671Z,8.67
2023-05-25T02:41:36.742Z,8.54
2023-05-25T02:43:39.830Z,8.67
2023-05-25T02:45:44.062Z,8.04
2023-05-25T02:47:47.046Z,8.78
2023-05-25T02:49:51.047Z,8.20
2023-05-25T02:51:54.226Z,8.52
2023-05-25T02:53:57.139Z,8.48
2023-05-25T02:56:00.248Z,8.39
2023-05-25T02:58:07.305Z,8.52
2023-05-25T03:00:30.232Z,8.53
2023-05-25T03:02:35.063Z,8.59
2023-05-25T03:04:39.584Z,8.69
2023-05-25T03:06:42.473Z,8.50
2023-05-25T03:08:49.882Z,8.57
2023-05-25T03:10:52.722Z,8.41
2023-05-25T03:12:55.582Z,8.31
2023-05-25T03:14:59.130Z,8.44
2023-05-25T03:17:02.408Z,8.44
2023-05-25T03:19:07.436Z,8.56
2023-05-25T03:21:12.431Z,8.37
2023-05-25T03:23:15.491Z,8.15
2023-05-25T03:25:18.555Z,7.97
2023-05-25T03:27:21.732Z,8.38
2023-05-25T03:29:24.919Z,8.51
2023-05-25T03:31:27.968Z,8.66
2023-05-25T03:33:30.960Z,8.59
2023-05-25T03:35:35.336Z,8.43
2023-05-25T03:37:38.300Z,7.80
2023-05-25T03:39:41.485Z,8.52
2023-05-25T03:41:44.542Z,8.41
2023-05-25T03:43:47.798Z,8.17
2023-05-25T03:45:50.698Z,8.30
2023-05-25T03:47:53.631Z,8.28
2023-05-25T03:49:57.676Z,7.54
2023-05-25T03:52:01.866Z,8.05
2023-05-25T03:54:04.935Z,7.58
2023-05-25T03:56:08.505Z,7.68
2023-05-25T03:58:13.594Z,7.57
2023-05-25T04:00:17.154Z,7.42
2023-05-25T04:02:20.057Z,7.88
2023-05-25T04:04:23.672Z,7.80
2023-05-25T04:06:26.654Z,7.87
2023-05-25T04:08:30.942Z,7.82
2023-05-25T04:10:34.155Z,8.16
2023-05-25T04:12:37.298Z,7.97
2023-05-25T04:14:40.164Z,7.81
2023-05-25T04:16:43.802Z,7.92
2023-05-25T04:18:48.596Z,8.05
2023-05-25T04:20:51.658Z,8.16
2023-05-25T04:22:57.659Z,8.19
2023-05-25T04:25:02.340Z,8.29
2023-05-25T04:27:05.662Z,7.04
2023-05-25T04:29:09.875Z,8.08
2023-05-25T04:31:24.956Z,7.82
2023-05-25T04:33:46.196Z,8.21
2023-05-25T04:35:54.456Z,7.92
2023-05-25T04:37:58.202Z,8.10
2023-05-25T04:40:06.926Z,7.99
2023-05-25T04:42:10.147Z,8.04
2023-05-25T04:44:14.653Z,8.32
2023-05-25T04:46:21.972Z,8.27
2023-05-25T04:48:25.639Z,8.18
2023-05-25T04:50:29.088Z,8.36
2023-05-25T04:52:32.569Z,8.27
2023-05-25T04:54:35.521Z,8.29
2023-05-25T04:56:40.350Z,8.32
2023-05-25T04:58:43.256Z,8.51
2023-05-25T05:00:46.435Z,8.42
2023-05-25T05:02:49.968Z,8.34
2023-05-25T05:04:53.971Z,8.40
2023-05-25T05:06:58.783Z,8.50
2023-05-25T05:09:04.491Z,8.24
2023-05-25T05:11:07.425Z,8.21
2023-05-25T05:13:12.510Z,8.95
2023-05-25T05:15:15.482Z,9.17
2023-05-25T05:17:20.406Z,8.97
2023-05-25T05:19:23.981Z,8.06
2023-05-25T05:21:26.879Z,8.88
2023-05-25T05:23:29.830Z,8.89
2023-05-25T05:25:32.781Z,9.01
2023-05-25T05:27:36.002Z,8.84
2023-05-25T05:29:46.239Z,9.32
2023-05-25T05:31:49.244Z,9.41
2023-05-25T05:33:52.570Z,9.50
2023-05-25T05:35:55.480Z,8.84
2023-05-25T05:37:59.995Z,9.31
2023-05-25T05:40:03.620Z,9.27
2023-05-25T05:42:08.205Z,9.55
2023-05-25T05:44:11.158Z,9.59
2023-05-25T05:46:15.383Z,9.80
2023-05-25T05:48:18.164Z,9.84
2023-05-25T05:50:21.376Z,9.30
2023-05-25T05:52:24.280Z,9.84
2023-05-25T05:54:27.890Z,10.02
2023-05-25T05:56:31.373Z,10.15
2023-05-25T05:58:34.176Z,9.93
2023-05-25T06:00:37.943Z,9.62
2023-05-25T06:02:44.525Z,10.23
2023-05-25T06:04:51.742Z,10.28
2023-05-25T06:06:55.158Z,9.76
2023-05-25T06:08:58.102Z,10.27
2023-05-25T06:11:00.857Z,10.42
2023-05-25T06:13:03.688Z,10.56
2023-05-25T06:15:07.868Z,10.55
2023-05-25T06:17:12.886Z,10.44
2023-05-25T06:19:17.043Z,10.51
2023-05-25T06:21:19.999Z,10.84
2023-05-25T06:23:25.397Z,10.68
2023-05-25T06:25:29.257Z,10.40
2023-05-25T06:27:32.259Z,10.67
2023-05-25T06:29:35.159Z,10.88
2023-05-25T06:31:38.626Z,11.10
2023-05-25T06:33:41.672Z,11.01
2023-05-25T06:35:46.835Z,11.03
2023-05-25T06:37:51.766Z,10.97
2023-05-25T06:39:57.579Z,10.92
2023-05-25T06:42:01.317Z,11.17
2023-05-25T06:44:07.260Z,11.27
2023-05-25T06:46:18.324Z,11.38
2023-05-25T06:48:21.720Z,11.30
2023-05-25T06:50:24.582Z,11.59
2023-05-25T06:52:29.154Z,11.12
2023-05-25T06:54:31.964Z,11.76
2023-05-25T06:56:34.763Z,11.73
2023-05-25T06:58:37.578Z,11.50
2023-05-25T07:00:40.463Z,11.69
2023-05-25T07:02:43.237Z,11.83
2023-05-25T07:04:46.106Z,11.96
2023-05-25T07:06:49.155Z,11.94
2023-05-25T07:08:53.269Z,11.76
2023-05-25T07:10:56.041Z,11.99
2023-05-25T07:12:58.893Z,12.24
2023-05-25T07:15:01.716Z,12.57
2023-05-25T07:17:04.505Z,12.77
2023-05-25T07:19:07.351Z,12.78
2023-05-25T07:21:12.059Z,12.64
2023-05-25T07:23:15.293Z,12.57
2023-05-25T07:25:19.553Z,12.28
2023-05-25T07:27:22.590Z,12.68
2023-05-25T07:29:25.472Z,12.41
2023-05-25T07:31:28.301Z,12.65
2023-05-25T07:33:31.177Z,13.50
2023-05-25T07:35:35.278Z,13.40
2023-05-25T07:37:38.126Z,13.22
2023-05-25T07:39:41.039Z,12.65
2023-05-25T07:41:45.102Z,13.17
2023-05-25T07:43:47.986Z,13.11
2023-05-25T07:45:50.835Z,13.21
2023-05-25T07:47:53.612Z,13.84
2023-05-25T07:49:56.457Z,13.23
2023-05-25T07:51:59.231Z,14.02
2023-05-25T07:54:02.017Z,13.89
2023-05-25T07:56:06.233Z,13.56
2023-05-25T07:58:11.490Z,13.72
2023-05-25T08:00:15.012Z,14.08
2023-05-25T08:02:17.830Z,14.48
2023-05-25T08:04:20.791Z,14.14
2023-05-25T08:06:24.194Z,14.13
2023-05-25T08:08:26.965Z,14.23
2023-05-25T08:10:32.224Z,14.73
2023-05-25T08:12:47.755Z,15.05
2023-05-25T08:14:54.130Z,15.08
2023-05-25T08:16:56.994Z,15.17
2023-05-25T08:19:01.486Z,14.37
2023-05-25T08:21:04.675Z,14.17
2023-05-25T08:23:08.420Z,14.54
2023-05-25T08:25:11.535Z,14.67
2023-05-25T08:27:14.310Z,14.59
2023-05-25T08:29:17.142Z,14.95
2023-05-25T08:31:21.618Z,15.31
2023-05-25T08:33:25.968Z,15.69
2023-05-25T08:35:29.038Z,15.63
2023-05-25T08:37:33.349Z,15.77
2023-05-25T08:39:36.136Z,15.39
2023-05-25T08:41:44.086Z,15.55
2023-05-25T08:43:46.988Z,15.05
2023-05-25T08:45:50.309Z,15.32
2023-05-25T08:48:00.002Z,15.99
2023-05-25T08:50:05.023Z,15.98
2023-05-25T08:52:11.683Z,15.48
2023-05-25T08:54:15.177Z,15.50
2023-05-25T08:56:20.758Z,15.26
2023-05-25T08:58:31.162Z,15.18
2023-05-25T09:00:37.168Z,15.50
2023-05-25T09:02:43.279Z,15.97
2023-05-25T09:04:47.557Z,16.71
2023-05-25T09:07:05.749Z,16.99
2023-05-25T09:09:13.619Z,17.07
2023-05-25T09:11:19.416Z,17.52
2023-05-25T09:13:34.096Z,17.48
2023-05-25T09:15:36.882Z,17.74
2023-05-25T09:17:41.290Z,17.09
2023-05-25T09:19:44.498Z,17.86
2023-05-25T09:21:49.360Z,17.79
2023-05-25T09:23:53.512Z,17.97
2023-05-25T09:25:57.230Z,18.10
2023-05-25T09:28:10.188Z,18.26
2023-05-25T09:30:23.701Z,18.60
2023-05-25T09:32:27.021Z,18.39
2023-05-25T09:34:33.978Z,19.17
2023-05-25T09:36:41.177Z,19.56
2023-05-25T09:38:45.816Z,19.82
2023-05-25T09:40:49.119Z,19.51
2023-05-25T09:42:52.089Z,19.70
2023-05-25T09:44:54.988Z,19.25
2023-05-25T09:46:57.772Z,19.07
2023-05-25T09:49:01.309Z,18.66
2023-05-25T09:51:04.243Z,18.07
2023-05-25T09:53:08.539Z,18.41
2023-05-25T09:55:13.386Z,19.24
2023-05-25T09:57:17.204Z,19.59
2023-05-25T09:59:20.019Z,19.60
2023-05-25T10:01:22.987Z,19.76
2023-05-25T10:03:26.332Z,20.15
2023-05-25T10:05:29.149Z,20.41
2023-05-25T10:07:34.456Z,20.78
2023-05-25T10:09:40.589Z,20.97
2023-05-25T10:11:45.960Z,21.32
2023-05-25T10:13:50.913Z,21.20
2023-05-25T10:15:54.918Z,20.92
2023-05-25T10:18:02.201Z,20.91
2023-05-25T10:20:10.705Z,20.94
2023-05-25T10:22:21.919Z,20.45
2023-05-25T10:24:32.008Z,20.33
2023-05-25T10:26:40.934Z,20.40
2023-05-25T10:28:46.017Z,19.35
2023-05-25T10:30:50.276Z,19.83
2023-05-25T10:32:54.509Z,19.96
2023-05-25T10:34:58.457Z,20.13
2023-05-25T10:37:04.422Z,20.09
2023-05-25T10:39:09.243Z,20.46
2023-05-25T10:41:12.720Z,21.19
2023-05-25T10:43:16.644Z,21.15
2023-05-25T10:45:21.254Z,21.11
2023-05-25T10:47:25.357Z,20.62
2023-05-25T10:49:33.814Z,21.31
2023-05-25T10:51:40.333Z,21.27
2023-05-25T10:53:45.872Z,21.45
2023-05-25T10:56:01.502Z,21.11
2023-05-25T10:58:12.077Z,21.68
2023-05-25T11:00:16.302Z,21.73
2023-05-25T11:02:23.709Z,21.28
2023-05-25T11:04:26.921Z,21.60
2023-05-25T11:07:13.321Z,21.93
2023-05-25T11:09:26.064Z,22.22
2023-05-25T11:12:03.798Z,21.25
2023-05-25T11:14:06.671Z,21.96
2023-05-25T11:16:14.192Z,21.66
2023-05-25T11:18:18.745Z,22.06
2023-05-25T11:20:25.306Z,22.10
2023-05-25T11:22:33.634Z,20.01
2023-05-25T11:24:37.331Z,20.89
2023-05-25T11:26:53.798Z,20.44
2023-05-25T11:28:59.023Z,20.11
2023-05-25T11:31:02.324Z,20.46
2023-05-25T11:33:07.804Z,21.05
2023-05-25T11:35:12.340Z,21.51
2023-05-25T11:37:21.103Z,20.86
2023-05-25T11:39:24.142Z,20.88
2023-05-25T11:41:27.024Z,21.14
2023-05-25T11:43:30.074Z,21.18
2023-05-25T11:45:34.442Z,20.96
2023-05-25T11:47:38.215Z,21.04
2023-05-25T11:49:44.261Z,21.66
2023-05-25T11:51:48.409Z,21.20
2023-05-25T11:53:51.682Z,20.08
2023-05-25T11:56:03.541Z,20.68
2023-05-25T11:58:10.684Z,20.40
2023-05-25T12:00:14.663Z,20.63
2023-05-25T12:02:18.318Z,21.65
2023-05-25T12:04:23.879Z,21.75
2023-05-25T12:06:29.153Z,21.53
2023-05-25T12:08:36.764Z,21.81
2023-05-25T12:10:51.126Z,20.60
2023-05-25T12:12:58.209Z,20.72
2023-05-25T12:15:01.083Z,20.99
2023-05-25T12:17:03.968Z,21.17
2023-05-25T12:19:08.038Z,21.24
2023-05-25T12:21:11.049Z,21.52
2023-05-25T12:23:14.066Z,20.38
2023-05-25T12:25:20.985Z,20.08
2023-05-25T12:27:24.010Z,21.15
2023-05-25T12:29:26.884Z,20.87
2023-05-25T12:31:31.508Z,20.56
2023-05-25T12:33:34.574Z,20.68
2023-05-25T12:35:47.859Z,21.56
2023-05-25T12:37:50.685Z,22.04
2023-05-25T12:39:53.421Z,22.27
2023-05-25T12:41:59.133Z,22.43
2023-05-25T12:44:01.926Z,21.87
2023-05-25T12:46:04.680Z,22.22
2023-05-25T12:48:07.523Z,21.95
2023-05-25T12:50:14.806Z,22.19
2023-05-25T12:52:33.505Z,22.13
2023-05-25T12:54:39.700Z,21.90
2023-05-25T12:56:54.942Z,21.66
2023-05-25T12:59:15.501Z,22.35
2023-05-25T13:01:18.373Z,22.44
2023-05-25T13:03:21.230Z,22.16
2023-05-25T13:05:25.541Z,22.63
2023-05-25T13:07:29.737Z,23.26
2023-05-25T13:09:32.823Z,22.58
2023-05-25T13:11:35.706Z,21.75
2023-05-25T13:13:38.501Z,21.33
2023-05-25T13:15:42.619Z,21.61
2023-05-25T13:17:45.639Z,22.43
2023-05-25T13:19:48.427Z,22.62
2023-05-25T13:21:51.958Z,22.88
2023-05-25T13:23:54.748Z,23.29
2023-05-25T13:25:57.598Z,23.34
2023-05-25T13:28:01.217Z,22.92
2023-05-25T13:30:04.922Z,23.16
2023-05-25T13:32:09.328Z,23.12
2023-05-25T13:34:12.274Z,22.89
2023-05-25T13:36:15.552Z,23.16
2023-05-25T13:38:19.609Z,23.56
2023-05-25T13:40:22.385Z,23.32
2023-05-25T13:42:25.659Z,24.18
2023-05-25T13:44:28.407Z,25.08
2023-05-25T13:46:35.196Z,24.87
2023-05-25T13:48:39.730Z,23.65
2023-05-25T13:50:43.270Z,22.48
2023-05-25T13:52:46.408Z,22.18
2023-05-25T13:54:49.162Z,21.88
2023-05-25T13:56:51.990Z,23.29
2023-05-25T13:58:54.991Z,23.18
2023-05-25T14:00:57.761Z,24.14
2023-05-25T14:03:00.672Z,25.00
2023-05-25T14:05:05.213Z,24.78
2023-05-25T14:07:08.008Z,24.19
2023-05-25T14:09:12.810Z,23.44
2023-05-25T14:11:18.364Z,23.76
2023-05-25T14:13:23.247Z,23.76
2023-05-25T14:15:26.427Z,24.14
2023-05-25T14:17:29.246Z,24.24
2023-05-25T14:19:32.989Z,24.58
2023-05-25T14:21:37.430Z,24.12
2023-05-25T14:23:40.237Z,24.68
2023-05-25T14:25:43.257Z,24.16
2023-05-25T14:27:46.392Z,24.34
2023-05-25T14:29:49.435Z,24.70
2023-05-25T14:31:52.253Z,25.15
2023-05-25T14:33:55.106Z,24.65
2023-05-25T14:35:58.184Z,24.33
2023-05-25T14:38:02.298Z,23.80
2023-05-25T14:40:06.067Z,23.71
2023-05-25T14:42:09.125Z,23.88
2023-05-25T14:44:11.921Z,23.39
2023-05-25T14:46:15.456Z,23.59
2023-05-25T14:48:23.154Z,24.29
2023-05-25T14:50:27.724Z,23.46
2023-05-25T14:52:31.782Z,23.71
2023-05-25T14:54:36.066Z,24.17
2023-05-25T14:56:38.832Z,24.47
2023-05-25T14:58:41.666Z,24.36
2023-05-25T15:00:44.442Z,24.05
2023-05-25T15:02:47.253Z,24.94
2023-05-25T15:04:50.133Z,25.65
2023-05-25T15:06:52.947Z,25.94
2023-05-25T15:08:55.776Z,27.25
2023-05-25T15:10:59.882Z,26.67
2023-05-25T15:13:02.727Z,26.30
2023-05-25T15:15:06.194Z,25.10
2023-05-25T15:17:09.131Z,25.54
2023-05-25T15:19:13.888Z,25.56
2023-05-25T15:21:18.884Z,25.58
2023-05-25T15:23:21.693Z,25.29
2023-05-25T15:25:35.000Z,25.78
2023-05-25T15:27:40.039Z,26.96
2023-05-25T15:29:42.878Z,28.11
2023-05-25T15:31:46.428Z,26.71
2023-05-25T15:33:56.719Z,26.02
2023-05-25T15:36:01.600Z,25.62
2023-05-25T15:38:04.457Z,25.93
2023-05-25T15:40:08.521Z,25.58
2023-05-25T15:42:11.475Z,25.94
2023-05-25T15:44:15.635Z,25.80
2023-05-25T15:46:18.543Z,23.31
2023-05-25T15:48:21.423Z,25.46
2023-05-25T15:50:24.274Z,25.75
2023-05-25T15:52:27.114Z,26.58
2023-05-25T15:54:29.921Z,27.25
2023-05-25T15:56:33.054Z,27.44
2023-05-25T15:58:35.997Z,27.55
2023-05-25T16:00:40.543Z,27.00
2023-05-25T16:02:43.381Z,25.67
2023-05-25T16:04:46.199Z,26.19
2023-05-25T16:06:49.176Z,27.25
2023-05-25T16:08:51.968Z,26.58
2023-05-25T16:10:54.743Z,27.79
2023-05-25T16:12:57.623Z,27.81
2023-05-25T16:15:00.438Z,28.19
2023-05-25T16:17:04.708Z,28.25
2023-05-25T16:19:07.785Z,28.70
2023-05-25T16:21:10.778Z,29.15
2023-05-25T16:23:14.725Z,29.30
2023-05-25T16:25:17.529Z,28.18
2023-05-25T16:27:20.323Z,27.65
2023-05-25T16:29:23.127Z,28.80
2023-05-25T16:31:26.021Z,29.64
2023-05-25T16:33:30.165Z,28.32
2023-05-25T16:35:32.925Z,28.23
2023-05-25T16:37:35.761Z,28.63
2023-05-25T16:39:38.530Z,29.94
2023-05-25T16:41:42.066Z,28.58
2023-05-25T16:43:44.889Z,28.10
2023-05-25T16:45:47.976Z,29.86
2023-05-25T16:47:51.082Z,30.17
2023-05-25T16:49:55.438Z,29.81
2023-05-25T16:51:58.640Z,30.56
2023-05-25T16:54:01.435Z,29.94
2023-05-25T16:56:04.291Z,30.14
2023-05-25T16:58:07.199Z,29.47
2023-05-25T17:00:11.573Z,29.74
2023-05-25T17:02:14.488Z,28.88
2023-05-25T17:04:17.295Z,28.66
2023-05-25T17:06:24.839Z,29.24
2023-05-25T17:08:27.631Z,27.20
2023-05-25T17:10:30.379Z,27.41
2023-05-25T17:12:33.177Z,25.65
2023-05-25T17:14:36.000Z,26.77
2023-05-25T17:16:38.843Z,26.20
2023-05-25T17:18:42.374Z,26.68
2023-05-25T17:20:45.404Z,26.06
2023-05-25T17:22:49.884Z,25.90
2023-05-25T17:24:52.637Z,25.90
2023-05-25T17:26:55.543Z,27.02
2023-05-25T17:29:00.684Z,26.56
2023-05-25T17:31:03.608Z,26.01
2023-05-25T17:33:06.450Z,26.92
2023-05-25T17:35:09.996Z,25.61
2023-05-25T17:37:12.750Z,26.20
2023-05-25T17:39:17.055Z,26.40
2023-05-25T17:41:19.874Z,25.64
2023-05-25T17:43:22.657Z,25.39
2023-05-25T17:45:25.539Z,25.03
2023-05-25T17:47:28.554Z,25.84
2023-05-25T17:49:31.316Z,25.50
2023-05-25T17:51:34.114Z,25.16
2023-05-25T17:53:37.499Z,25.45
2023-05-25T17:55:41.906Z,23.52
2023-05-25T17:57:44.948Z,24.04
2023-05-25T17:59:47.739Z,24.18
2023-05-25T18:01:50.678Z,24.03
2023-05-25T18:03:54.358Z,23.00
2023-05-25T18:05:57.343Z,22.17
2023-05-25T18:08:00.191Z,22.98
2023-05-25T18:10:02.986Z,22.75
2023-05-25T18:12:07.778Z,22.45
2023-05-25T18:14:10.580Z,22.44
2023-05-25T18:16:13.689Z,22.73
2023-05-25T18:18:16.670Z,22.45
2023-05-25T18:20:19.498Z,21.86
2023-05-25T18:22:22.354Z,21.77
2023-05-25T18:24:25.095Z,21.10
2023-05-25T18:26:27.879Z,20.69
2023-05-25T18:28:32.049Z,19.96
2023-05-25T18:30:34.828Z,19.64
2023-05-25T18:32:37.706Z,18.81
2023-05-25T18:34:41.268Z,19.07
2023-05-25T18:36:44.207Z,19.02
2023-05-25T18:38:46.996Z,19.04
2023-05-25T18:40:49.792Z,18.74
2023-05-25T18:42:52.687Z,18.56
2023-05-25T18:44:56.818Z,18.40
2023-05-25T18:46:59.888Z,18.07
2023-05-25T18:49:02.642Z,18.76
2023-05-25T18:51:05.451Z,18.74
2023-05-25T18:53:10.627Z,18.17
2023-05-25T18:55:13.440Z,18.38
2023-05-25T18:57:16.463Z,17.84
2023-05-25T18:59:19.357Z,17.70
2023-05-25T19:01:24.414Z,17.58
2023-05-25T19:03:27.685Z,17.44
2023-05-25T19:05:30.643Z,17.43
2023-05-25T19:07:37.692Z,17.52
2023-05-25T19:09:44.484Z,17.20
2023-05-25T19:11:47.252Z,17.36
2023-05-25T19:13:50.086Z,17.46
2023-05-25T19:15:52.899Z,16.94
2023-05-25T19:17:57.154Z,16.37
2023-05-25T19:20:00.051Z,17.10
2023-05-25T19:22:02.893Z,17.11
2023-05-25T19:24:06.233Z,16.98
2023-05-25T19:26:09.011Z,17.01
2023-05-25T19:28:11.830Z,16.92
2023-05-25T19:30:14.795Z,16.83
2023-05-25T19:32:18.186Z,16.66
2023-05-25T19:34:22.434Z,16.66
2023-05-25T19:36:25.197Z,16.36
2023-05-25T19:38:31.519Z,16.76
2023-05-25T19:40:43.492Z,16.69
2023-05-25T19:42:46.284Z,16.74
2023-05-25T19:44:49.092Z,15.29
2023-05-25T19:46:51.912Z,16.48
2023-05-25T19:48:54.735Z,16.46
2023-05-25T19:50:59.150Z,16.61
2023-05-25T19:53:02.507Z,16.50
2023-05-25T19:55:05.794Z,16.53
2023-05-25T19:57:08.581Z,16.13
2023-05-25T19:59:11.473Z,16.18
2023-05-25T20:01:14.343Z,16.19
2023-05-25T20:03:17.689Z,16.47
2023-05-25T20:05:20.758Z,16.35
2023-05-25T20:07:24.937Z,16.22
2023-05-25T20:09:30.807Z,16.09
2023-05-25T20:11:33.672Z,16.13
2023-05-25T20:13:37.702Z,16.28
2023-05-25T20:15:40.700Z,16.40
2023-05-25T20:17:43.601Z,16.37
2023-05-25T20:19:46.411Z,16.27
2023-05-25T20:21:49.606Z,16.15
2023-05-25T20:23:53.839Z,15.83
2023-05-25T20:25:56.661Z,15.88
2023-05-25T20:27:59.437Z,15.69
2023-05-25T20:30:02.263Z,15.94
2023-05-25T20:32:05.228Z,16.05
2023-05-25T20:34:08.016Z,15.83
2023-05-25T20:36:10.774Z,15.94
2023-05-25T20:38:13.550Z,16.01
2023-05-25T20:40:17.849Z,15.81
2023-05-25T20:42:20.621Z,15.59
2023-05-25T20:44:23.422Z,16.19
2023-05-25T20:46:27.487Z,15.87
2023-05-25T20:48:30.256Z,15.61
2023-05-25T20:50:33.175Z,15.82
2023-05-25T20:52:36.159Z,15.18
2023-05-25T20:54:44.408Z,15.89
2023-05-25T20:56:50.891Z,15.89
2023-05-25T20:58:53.795Z,15.81
2023-05-25T21:00:56.624Z,15.58
2023-05-25T21:02:59.462Z,15.69
2023-05-25T21:05:02.446Z,15.33
2023-05-25T21:07:05.717Z,15.90
2023-05-25T21:09:08.613Z,15.97
2023-05-25T21:11:11.925Z,15.89
2023-05-25T21:13:16.435Z,15.81
2023-05-25T21:15:19.174Z,15.70
2023-05-25T21:17:21.985Z,15.70
2023-05-25T21:19:24.829Z,15.65
2023-05-25T21:21:28.057Z,15.43
2023-05-25T21:23:30.952Z,15.37
2023-05-25T21:25:33.750Z,15.47
2023-05-25T21:27:36.539Z,15.53
2023-05-25T21:29:42.083Z,15.45
2023-05-25T21:31:44.938Z,15.43
2023-05-25T21:33:47.862Z,15.33
2023-05-25T21:35:50.624Z,15.34
2023-05-25T21:37:53.399Z,15.27
2023-05-25T21:39:56.238Z,15.08
2023-05-25T21:41:58.975Z,15.09
2023-05-25T21:44:01.733Z,14.92
2023-05-25T21:46:05.963Z,14.61
2023-05-25T21:48:08.780Z,14.87
2023-05-25T21:50:11.669Z,14.87
2023-05-25T21:52:14.403Z,15.00
2023-05-25T21:54:17.194Z,14.85
2023-05-25T21:56:20.051Z,14.95
2023-05-25T21:58:22.933Z,14.80
2023-05-25T22:00:25.682Z,14.87
2023-05-25T22:02:29.842Z,14.87
2023-05-25T22:04:32.709Z,14.83
2023-05-25T22:06:36.560Z,14.87
2023-05-25T22:08:41.138Z,14.95
2023-05-25T22:10:44.086Z,14.95
2023-05-25T22:12:47.165Z,14.44
2023-05-25T22:14:50.954Z,14.94
2023-05-25T22:16:53.767Z,14.88
2023-05-25T22:18:58.110Z,14.80
2023-05-25T22:21:00.916Z,14.80
2023-05-25T22:23:03.898Z,14.63
2023-05-25T22:25:07.340Z,14.72
2023-05-25T22:27:10.123Z,14.58
2023-05-25T22:29:12.923Z,14.67
2023-05-25T22:31:15.822Z,14.65
2023-05-25T22:33:18.626Z,14.62
2023-05-25T22:35:22.838Z,14.60
2023-05-25T22:37:26.360Z,14.67
2023-05-25T22:39:29.152Z,14.62
2023-05-25T22:41:31.950Z,14.45
2023-05-25T22:43:34.708Z,14.46
2023-05-25T22:45:37.421Z,14.43
2023-05-25T22:47:40.193Z,13.90
2023-05-25T22:49:44.413Z,14.26
2023-05-25T22:51:48.645Z,14.37
2023-05-25T22:53:51.394Z,14.30
2023-05-25T22:55:54.185Z,14.45
2023-05-25T22:57:57.011Z,14.36
2023-05-25T22:59:59.816Z,14.50
2023-05-25T23:02:02.774Z,14.31
2023-05-25T23:04:05.702Z,14.24
2023-05-25T23:06:08.853Z,14.26
2023-05-25T23:08:12.957Z,14.27
2023-05-25T23:10:15.780Z,14.41
2023-05-25T23:12:18.529Z,13.52
2023-05-25T23:14:21.688Z,14.47
2023-05-25T23:16:26.760Z,14.15
2023-05-25T23:18:29.620Z,13.59
2023-05-25T23:20:35.669Z,14.58
2023-05-25T23:22:38.756Z,14.67
2023-05-25T23:24:42.908Z,14.67
2023-05-25T23:26:45.665Z,14.58
2023-05-25T23:28:49.421Z,14.56
2023-05-25T23:30:52.192Z,14.54
2023-05-25T23:32:54.962Z,14.23
2023-05-25T23:34:57.802Z,14.31
2023-05-25T23:37:00.620Z,14.70
2023-05-25T23:39:03.433Z,14.24
2023-05-25T23:41:08.236Z,13.32
2023-05-25T23:43:11.095Z,14.45
2023-05-25T23:45:14.209Z,14.47
2023-05-25T23:47:16.986Z,14.36
2023-05-25T23:49:19.774Z,14.09
2023-05-25T23:51:22.531Z,14.24
2023-05-25T23:53:25.349Z,14.31
2023-05-25T23:55:28.271Z,13.48
2023-05-25T23:57:32.377Z,13.99
2023-05-25T23:59:35.249Z,14.24
